sensor_id;sensor_type;location;lat;lon;timestamp;temperature;humidity
64939;DHT22;51453;47.738;7.420;2023-04-01T00:00:58;7.40;99.90
64939;DHT22;51453;47.738;7.420;2023-04-01T00:03:25;7.40;99.90
64939;DHT22;51453;47.738;7.420;2023-04-01T00:05:53;7.40;99.90
64939;DHT22;51453;47.738;7.420;2023-04-01T00:08:19;7.40;99.90
64939;DHT22;51453;47.738;7.420;2023-04-01T00:10:45;7.40;99.90
64939;DHT22;51453;47.738;7.420;2023-04-01T00:13:11;7.50;99.90
64939;DHT22;51453;47.738;7.420;2023-04-01T00:15:37;7.40;99.90
64939;DHT22;51453;47.738;7.420;2023-04-01T00:18:03;7.50;99.90
64939;DHT22;51453;47.738;7.420;2023-04-01T00:20:29;7.50;99.90
64939;DHT22;51453;47.738;7.420;2023-04-01T00:22:56;7.50;99.90
64939;DHT22;51453;47.738;7.420;2023-04-01T00:25:22;7.50;99.90
64939;DHT22;51453;47.738;7.420;2023-04-01T00:27:48;7.50;99.90
64939;DHT22;51453;47.738;7.420;2023-04-01T00:30:15;7.50;99.90
64939;DHT22;51453;47.738;7.420;2023-04-01T00:32:41;7.50;99.90
64939;DHT22;51453;47.738;7.420;2023-04-01T00:35:06;7.50;99.90
64939;DHT22;51453;47.738;7.420;2023-04-01T00:37:35;7.60;99.90
64939;DHT22;51453;47.738;7.420;2023-04-01T00:40:03;7.60;99.90
64939;DHT22;51453;47.738;7.420;2023-04-01T00:42:29;7.70;99.90
64939;DHT22;51453;47.738;7.420;2023-04-01T00:44:55;7.80;99.90
64939;DHT22;51453;47.738;7.420;2023-04-01T00:47:22;7.80;99.90
64939;DHT22;51453;47.738;7.420;2023-04-01T00:49:51;7.90;99.90
64939;DHT22;51453;47.738;7.420;2023-04-01T00:52:20;7.90;99.90
64939;DHT22;51453;47.738;7.420;2023-04-01T00:54:50;8.00;99.90
64939;DHT22;51453;47.738;7.420;2023-04-01T00:57:23;8.00;99.90
64939;DHT22;51453;47.738;7.420;2023-04-01T00:59:52;8.00;99.90
64939;DHT22;51453;47.738;7.420;2023-04-01T01:02:19;8.10;99.90
64939;DHT22;51453;47.738;7.420;2023-04-01T01:04:45;8.10;99.90
64939;DHT22;51453;47.738;7.420;2023-04-01T01:07:35;8.10;99.90
64939;DHT22;51453;47.738;7.420;2023-04-01T01:12:52;8.10;99.90
64939;DHT22;51453;47.738;7.420;2023-04-01T01:31:21;8.10;99.90
64939;DHT22;51453;47.738;7.420;2023-04-01T01:36:28;8.10;99.90
64939;DHT22;51453;47.738;7.420;2023-04-01T01:38:55;8.20;99.90
64939;DHT22;51453;47.738;7.420;2023-04-01T01:41:22;8.10;99.90
64939;DHT22;51453;47.738;7.420;2023-04-01T01:43:50;8.10;99.90
64939;DHT22;51453;47.738;7.420;2023-04-01T01:46:22;8.00;99.90
64939;DHT22;51453;47.738;7.420;2023-04-01T01:48:49;8.00;99.90
64939;DHT22;51453;47.738;7.420;2023-04-01T01:51:17;8.00;99.90
64939;DHT22;51453;47.738;7.420;2023-04-01T01:53:43;8.00;99.90
64939;DHT22;51453;47.738;7.420;2023-04-01T01:56:11;8.00;99.90
64939;DHT22;51453;47.738;7.420;2023-04-01T01:58:47;7.90;99.90
64939;DHT22;51453;47.738;7.420;2023-04-01T02:01:23;8.00;99.90
64939;DHT22;51453;47.738;7.420;2023-04-01T02:03:51;8.00;99.90
64939;DHT22;51453;47.738;7.420;2023-04-01T02:06:21;8.00;99.90
64939;DHT22;51453;47.738;7.420;2023-04-01T02:11:20;8.00;99.90
64939;DHT22;51453;47.738;7.420;2023-04-01T02:19:17;8.00;99.90
64939;DHT22;51453;47.738;7.420;2023-04-01T02:21:53;8.00;99.90
64939;DHT22;51453;47.738;7.420;2023-04-01T02:24:22;7.90;99.90
64939;DHT22;51453;47.738;7.420;2023-04-01T02:26:53;7.90;99.90
64939;DHT22;51453;47.738;7.420;2023-04-01T02:29:23;7.90;99.90
64939;DHT22;51453;47.738;7.420;2023-04-01T02:31:50;8.00;99.90
64939;DHT22;51453;47.738;7.420;2023-04-01T02:34:17;8.00;99.90
64939;DHT22;51453;47.738;7.420;2023-04-01T02:36:43;8.10;99.90
64939;DHT22;51453;47.738;7.420;2023-04-01T02:39:09;8.00;99.90
64939;DHT22;51453;47.738;7.420;2023-04-01T02:41:41;8.00;99.90
64939;DHT22;51453;47.738;7.420;2023-04-01T02:44:07;8.00;99.90
64939;DHT22;51453;47.738;7.420;2023-04-01T02:46:32;8.00;99.90
64939;DHT22;51453;47.738;7.420;2023-04-01T02:48:58;8.10;99.90
64939;DHT22;51453;47.738;7.420;2023-04-01T02:51:25;8.10;99.90
64939;DHT22;51453;47.738;7.420;2023-04-01T02:53:51;8.10;99.90
64939;DHT22;51453;47.738;7.420;2023-04-01T02:56:16;8.10;99.90
64939;DHT22;51453;47.738;7.420;2023-04-01T02:58:42;8.00;99.90
64939;DHT22;51453;47.738;7.420;2023-04-01T03:01:08;7.90;99.90
64939;DHT22;51453;47.738;7.420;2023-04-01T03:03:34;7.80;99.90
64939;DHT22;51453;47.738;7.420;2023-04-01T03:06:05;7.80;99.90
64939;DHT22;51453;47.738;7.420;2023-04-01T03:08:31;7.70;99.90
64939;DHT22;51453;47.738;7.420;2023-04-01T03:10:57;7.60;99.90
64939;DHT22;51453;47.738;7.420;2023-04-01T03:13:22;7.60;99.90
64939;DHT22;51453;47.738;7.420;2023-04-01T03:15:48;7.50;99.90
64939;DHT22;51453;47.738;7.420;2023-04-01T03:18:13;7.50;99.90
64939;DHT22;51453;47.738;7.420;2023-04-01T03:20:39;7.50;99.90
64939;DHT22;51453;47.738;7.420;2023-04-01T03:23:05;7.50;99.90
64939;DHT22;51453;47.738;7.420;2023-04-01T03:25:30;7.50;99.90
64939;DHT22;51453;47.738;7.420;2023-04-01T03:27:56;7.50;99.90
64939;DHT22;51453;47.738;7.420;2023-04-01T03:30:25;7.50;99.90
64939;DHT22;51453;47.738;7.420;2023-04-01T03:32:51;7.50;99.90
64939;DHT22;51453;47.738;7.420;2023-04-01T03:35:17;7.60;99.90
64939;DHT22;51453;47.738;7.420;2023-04-01T03:37:42;7.60;99.90
64939;DHT22;51453;47.738;7.420;2023-04-01T03:40:09;7.60;99.90
64939;DHT22;51453;47.738;7.420;2023-04-01T03:42:35;7.60;99.90
64939;DHT22;51453;47.738;7.420;2023-04-01T03:45:02;7.60;99.90
64939;DHT22;51453;47.738;7.420;2023-04-01T03:47:28;7.60;99.90
64939;DHT22;51453;47.738;7.420;2023-04-01T03:49:53;7.60;99.90
64939;DHT22;51453;47.738;7.420;2023-04-01T03:52:19;7.60;99.90
64939;DHT22;51453;47.738;7.420;2023-04-01T03:54:45;7.60;99.90
64939;DHT22;51453;47.738;7.420;2023-04-01T03:57:11;7.60;99.90
64939;DHT22;51453;47.738;7.420;2023-04-01T03:59:36;7.50;99.90
64939;DHT22;51453;47.738;7.420;2023-04-01T04:02:02;7.50;99.90
64939;DHT22;51453;47.738;7.420;2023-04-01T04:04:28;7.50;99.90
64939;DHT22;51453;47.738;7.420;2023-04-01T04:06:55;7.50;99.90
64939;DHT22;51453;47.738;7.420;2023-04-01T04:09:21;7.60;99.90
64939;DHT22;51453;47.738;7.420;2023-04-01T04:11:47;7.60;99.90
64939;DHT22;51453;47.738;7.420;2023-04-01T04:14:13;7.50;99.90
64939;DHT22;51453;47.738;7.420;2023-04-01T04:16:38;7.50;99.90
64939;DHT22;51453;47.738;7.420;2023-04-01T04:19:05;7.50;99.90
64939;DHT22;51453;47.738;7.420;2023-04-01T04:21:30;7.40;99.90
64939;DHT22;51453;47.738;7.420;2023-04-01T04:23:56;7.50;99.90
64939;DHT22;51453;47.738;7.420;2023-04-01T04:26:22;7.50;99.90
64939;DHT22;51453;47.738;7.420;2023-04-01T04:28:47;7.40;99.90
64939;DHT22;51453;47.738;7.420;2023-04-01T04:31:19;7.40;99.90
64939;DHT22;51453;47.738;7.420;2023-04-01T04:33:45;7.30;99.90
64939;DHT22;51453;47.738;7.420;2023-04-01T04:36:11;7.30;99.90
64939;DHT22;51453;47.738;7.420;2023-04-01T04:38:36;7.30;99.90
64939;DHT22;51453;47.738;7.420;2023-04-01T04:41:02;7.30;99.90
64939;DHT22;51453;47.738;7.420;2023-04-01T04:43:27;7.30;99.90
64939;DHT22;51453;47.738;7.420;2023-04-01T04:45:53;7.40;99.90
64939;DHT22;51453;47.738;7.420;2023-04-01T04:48:19;7.40;99.90
64939;DHT22;51453;47.738;7.420;2023-04-01T04:50:49;7.40;99.90
64939;DHT22;51453;47.738;7.420;2023-04-01T04:53:17;7.50;99.90
64939;DHT22;51453;47.738;7.420;2023-04-01T04:55:48;7.60;99.90
64939;DHT22;51453;47.738;7.420;2023-04-01T04:58:14;7.60;99.90
64939;DHT22;51453;47.738;7.420;2023-04-01T05:00:40;7.60;99.90
64939;DHT22;51453;47.738;7.420;2023-04-01T05:03:06;7.60;99.90
64939;DHT22;51453;47.738;7.420;2023-04-01T05:05:31;7.60;99.90
64939;DHT22;51453;47.738;7.420;2023-04-01T05:07:57;7.70;99.90
64939;DHT22;51453;47.738;7.420;2023-04-01T05:10:23;7.70;99.90
64939;DHT22;51453;47.738;7.420;2023-04-01T05:12:48;7.70;99.90
64939;DHT22;51453;47.738;7.420;2023-04-01T05:15:14;7.80;99.90
64939;DHT22;51453;47.738;7.420;2023-04-01T05:17:40;7.80;99.90
64939;DHT22;51453;47.738;7.420;2023-04-01T05:20:07;7.80;99.90
64939;DHT22;51453;47.738;7.420;2023-04-01T05:22:33;7.80;99.90
64939;DHT22;51453;47.738;7.420;2023-04-01T05:24:59;7.80;99.90
64939;DHT22;51453;47.738;7.420;2023-04-01T05:27:24;7.80;99.90
64939;DHT22;51453;47.738;7.420;2023-04-01T05:29:50;7.90;99.90
64939;DHT22;51453;47.738;7.420;2023-04-01T05:32:16;7.90;99.90
64939;DHT22;51453;47.738;7.420;2023-04-01T05:34:42;8.00;99.90
64939;DHT22;51453;47.738;7.420;2023-04-01T05:37:07;7.90;99.90
64939;DHT22;51453;47.738;7.420;2023-04-01T05:39:37;7.90;99.90
64939;DHT22;51453;47.738;7.420;2023-04-01T05:42:05;7.90;99.90
64939;DHT22;51453;47.738;7.420;2023-04-01T05:44:31;7.90;99.90
64939;DHT22;51453;47.738;7.420;2023-04-01T05:46:57;7.90;99.90
64939;DHT22;51453;47.738;7.420;2023-04-01T05:49:23;7.90;99.90
64939;DHT22;51453;47.738;7.420;2023-04-01T05:51:48;7.90;99.90
64939;DHT22;51453;47.738;7.420;2023-04-01T05:54:14;8.00;99.90
64939;DHT22;51453;47.738;7.420;2023-04-01T05:56:39;8.00;99.90
64939;DHT22;51453;47.738;7.420;2023-04-01T05:59:05;8.10;99.90
64939;DHT22;51453;47.738;7.420;2023-04-01T06:01:32;8.10;99.90
64939;DHT22;51453;47.738;7.420;2023-04-01T06:03:58;8.10;99.90
64939;DHT22;51453;47.738;7.420;2023-04-01T06:06:26;8.10;99.90
64939;DHT22;51453;47.738;7.420;2023-04-01T06:08:53;8.20;99.90
64939;DHT22;51453;47.738;7.420;2023-04-01T06:14:07;8.20;99.90
64939;DHT22;51453;47.738;7.420;2023-04-01T06:46:48;8.10;99.90
64939;DHT22;51453;47.738;7.420;2023-04-01T06:49:48;8.20;99.90
64939;DHT22;51453;47.738;7.420;2023-04-01T06:55:27;8.20;99.90
64939;DHT22;51453;47.738;7.420;2023-04-01T06:57:57;8.30;99.90
64939;DHT22;51453;47.738;7.420;2023-04-01T07:00:30;8.30;99.90
64939;DHT22;51453;47.738;7.420;2023-04-01T07:03:59;8.40;99.90
64939;DHT22;51453;47.738;7.420;2023-04-01T07:06:09;8.50;99.90
64939;DHT22;51453;47.738;7.420;2023-04-01T07:08:38;8.50;99.90
64939;DHT22;51453;47.738;7.420;2023-04-01T07:11:09;8.50;99.90
64939;DHT22;51453;47.738;7.420;2023-04-01T07:13:48;8.40;99.90
64939;DHT22;51453;47.738;7.420;2023-04-01T07:16:34;8.40;99.90
64939;DHT22;51453;47.738;7.420;2023-04-01T07:19:26;8.50;99.90
64939;DHT22;51453;47.738;7.420;2023-04-01T07:24:41;8.50;99.90
64939;DHT22;51453;47.738;7.420;2023-04-01T07:27:12;8.60;99.90
64939;DHT22;51453;47.738;7.420;2023-04-01T07:29:38;8.70;99.90
64939;DHT22;51453;47.738;7.420;2023-04-01T07:35:03;8.80;99.90
64939;DHT22;51453;47.738;7.420;2023-04-01T07:45:23;9.00;99.90
64939;DHT22;51453;47.738;7.420;2023-04-01T07:47:57;9.00;99.90
64939;DHT22;51453;47.738;7.420;2023-04-01T07:50:28;9.00;99.90
64939;DHT22;51453;47.738;7.420;2023-04-01T07:53:03;9.10;99.90
64939;DHT22;51453;47.738;7.420;2023-04-01T07:55:50;9.10;99.90
64939;DHT22;51453;47.738;7.420;2023-04-01T07:58:44;9.10;99.90
64939;DHT22;51453;47.738;7.420;2023-04-01T08:06:20;9.20;99.90
64939;DHT22;51453;47.738;7.420;2023-04-01T08:12:04;9.30;99.90
64939;DHT22;51453;47.738;7.420;2023-04-01T08:14:24;9.20;99.90
64939;DHT22;51453;47.738;7.420;2023-04-01T08:22:12;9.30;99.90
64939;DHT22;51453;47.738;7.420;2023-04-01T08:24:45;9.40;99.90
64939;DHT22;51453;47.738;7.420;2023-04-01T08:27:35;9.40;99.90
64939;DHT22;51453;47.738;7.420;2023-04-01T08:30:15;9.50;99.90
64939;DHT22;51453;47.738;7.420;2023-04-01T08:32:47;9.50;99.90
64939;DHT22;51453;47.738;7.420;2023-04-01T08:35:34;9.50;99.90
64939;DHT22;51453;47.738;7.420;2023-04-01T08:38:14;9.50;99.90
64939;DHT22;51453;47.738;7.420;2023-04-01T08:40:56;9.50;99.90
64939;DHT22;51453;47.738;7.420;2023-04-01T08:44:52;9.60;99.90
64939;DHT22;51453;47.738;7.420;2023-04-01T09:45:44;10.90;99.90
64939;DHT22;51453;47.738;7.420;2023-04-01T09:53:44;10.90;99.90
64939;DHT22;51453;47.738;7.420;2023-04-01T10:33:41;10.70;99.90
64939;DHT22;51453;47.738;7.420;2023-04-01T10:41:28;10.50;99.90
64939;DHT22;51453;47.738;7.420;2023-04-01T11:16:21;10.60;99.90
64939;DHT22;51453;47.738;7.420;2023-04-01T11:29:44;11.20;99.90
64939;DHT22;51453;47.738;7.420;2023-04-01T11:32:33;11.20;99.90
64939;DHT22;51453;47.738;7.420;2023-04-01T11:38:31;11.10;99.90
64939;DHT22;51453;47.738;7.420;2023-04-01T11:49:47;11.00;99.90
64939;DHT22;51453;47.738;7.420;2023-04-01T11:52:11;10.90;99.90
64939;DHT22;51453;47.738;7.420;2023-04-01T11:55:05;10.80;99.90
64939;DHT22;51453;47.738;7.420;2023-04-01T12:06:31;10.90;99.90
64939;DHT22;51453;47.738;7.420;2023-04-01T12:09:14;11.00;99.90
64939;DHT22;51453;47.738;7.420;2023-04-01T12:19:51;11.10;99.90
64939;DHT22;51453;47.738;7.420;2023-04-01T12:28:06;11.40;99.90
64939;DHT22;51453;47.738;7.420;2023-04-01T12:33:41;11.70;99.90
64939;DHT22;51453;47.738;7.420;2023-04-01T12:36:18;11.80;99.90
64939;DHT22;51453;47.738;7.420;2023-04-01T12:38:55;12.00;99.90
64939;DHT22;51453;47.738;7.420;2023-04-01T12:50:23;12.10;99.90
64939;DHT22;51453;47.738;7.420;2023-04-01T12:55:54;12.50;99.90
64939;DHT22;51453;47.738;7.420;2023-04-01T13:04:05;13.20;99.90
64939;DHT22;51453;47.738;7.420;2023-04-01T13:17:53;14.40;99.90
64939;DHT22;51453;47.738;7.420;2023-04-01T13:26:13;14.40;99.90
64939;DHT22;51453;47.738;7.420;2023-04-01T13:42:33;13.80;99.90
64939;DHT22;51453;47.738;7.420;2023-04-01T13:45:19;13.80;99.90
64939;DHT22;51453;47.738;7.420;2023-04-01T13:58:55;12.90;99.90
64939;DHT22;51453;47.738;7.420;2023-04-01T14:07:31;12.10;99.90
64939;DHT22;51453;47.738;7.420;2023-04-01T14:12:56;11.30;99.90
64939;DHT22;51453;47.738;7.420;2023-04-01T14:16:47;10.70;99.90
64939;DHT22;51453;47.738;7.420;2023-04-01T14:21:33;9.70;99.90
64939;DHT22;51453;47.738;7.420;2023-04-01T14:40:52;11.20;99.90
64939;DHT22;51453;47.738;7.420;2023-04-01T14:48:59;11.60;99.90
64939;DHT22;51453;47.738;7.420;2023-04-01T14:51:35;11.80;99.90
64939;DHT22;51453;47.738;7.420;2023-04-01T14:54:15;11.90;99.90
64939;DHT22;51453;47.738;7.420;2023-04-01T14:59:28;12.00;99.90
64939;DHT22;51453;47.738;7.420;2023-04-01T15:02:16;12.40;99.90
64939;DHT22;51453;47.738;7.420;2023-04-01T15:04:54;12.60;99.90
64939;DHT22;51453;47.738;7.420;2023-04-01T15:12:56;13.30;99.90
64939;DHT22;51453;47.738;7.420;2023-04-01T15:31:46;13.30;99.90
64939;DHT22;51453;47.738;7.420;2023-04-01T15:54:21;13.50;99.90
64939;DHT22;51453;47.738;7.420;2023-04-01T15:56:27;13.30;99.90
64939;DHT22;51453;47.738;7.420;2023-04-01T16:02:07;13.10;99.90
64939;DHT22;51453;47.738;7.420;2023-04-01T16:07:30;13.70;99.90
64939;DHT22;51453;47.738;7.420;2023-04-01T16:13:16;14.30;99.90
64939;DHT22;51453;47.738;7.420;2023-04-01T16:16:13;14.10;99.90
64939;DHT22;51453;47.738;7.420;2023-04-01T16:21:46;14.00;99.90
64939;DHT22;51453;47.738;7.420;2023-04-01T16:34:40;13.50;99.90
64939;DHT22;51453;47.738;7.420;2023-04-01T16:37:10;13.50;99.90
64939;DHT22;51453;47.738;7.420;2023-04-01T16:39:43;13.40;99.90
64939;DHT22;51453;47.738;7.420;2023-04-01T16:42:40;13.20;99.90
64939;DHT22;51453;47.738;7.420;2023-04-01T16:53:19;12.80;99.90
64939;DHT22;51453;47.738;7.420;2023-04-01T16:56:04;12.70;99.90
64939;DHT22;51453;47.738;7.420;2023-04-01T16:58:34;12.50;99.90
64939;DHT22;51453;47.738;7.420;2023-04-01T17:01:23;12.40;99.90
64939;DHT22;51453;47.738;7.420;2023-04-01T17:04:11;12.20;99.90
64939;DHT22;51453;47.738;7.420;2023-04-01T17:06:54;12.10;99.90
64939;DHT22;51453;47.738;7.420;2023-04-01T17:09:32;11.90;99.90
64939;DHT22;51453;47.738;7.420;2023-04-01T17:12:17;11.80;99.90
64939;DHT22;51453;47.738;7.420;2023-04-01T17:17:48;11.60;99.90
64939;DHT22;51453;47.738;7.420;2023-04-01T17:20:38;11.40;99.90
64939;DHT22;51453;47.738;7.420;2023-04-01T17:23:13;11.30;99.90
64939;DHT22;51453;47.738;7.420;2023-04-01T17:47:49;10.30;99.90
64939;DHT22;51453;47.738;7.420;2023-04-01T17:53:24;10.30;99.90
64939;DHT22;51453;47.738;7.420;2023-04-01T18:09:53;10.00;99.90
64939;DHT22;51453;47.738;7.420;2023-04-01T18:21:03;9.90;99.90
64939;DHT22;51453;47.738;7.420;2023-04-01T18:23:43;9.80;99.90
64939;DHT22;51453;47.738;7.420;2023-04-01T18:26:26;9.70;99.90
64939;DHT22;51453;47.738;7.420;2023-04-01T18:31:46;9.50;99.90
64939;DHT22;51453;47.738;7.420;2023-04-01T18:34:52;9.30;99.90
64939;DHT22;51453;47.738;7.420;2023-04-01T18:39:57;9.20;99.90
64939;DHT22;51453;47.738;7.420;2023-04-01T18:45:37;9.00;99.90
64939;DHT22;51453;47.738;7.420;2023-04-01T18:50:55;8.90;99.90
64939;DHT22;51453;47.738;7.420;2023-04-01T18:53:34;8.80;99.90
64939;DHT22;51453;47.738;7.420;2023-04-01T19:09:22;8.50;99.90
64939;DHT22;51453;47.738;7.420;2023-04-01T19:22:54;8.00;99.90
64939;DHT22;51453;47.738;7.420;2023-04-01T19:25:54;8.00;99.90
64939;DHT22;51453;47.738;7.420;2023-04-01T19:28:48;7.90;99.90
64939;DHT22;51453;47.738;7.420;2023-04-01T19:36:49;7.60;99.90
64939;DHT22;51453;47.738;7.420;2023-04-01T19:45:25;7.30;99.90
64939;DHT22;51453;47.738;7.420;2023-04-01T19:53:25;7.20;99.90
64939;DHT22;51453;47.738;7.420;2023-04-01T19:56:22;7.20;99.90
64939;DHT22;51453;47.738;7.420;2023-04-01T20:01:36;7.10;99.90
64939;DHT22;51453;47.738;7.420;2023-04-01T20:04:57;7.20;99.90
64939;DHT22;51453;47.738;7.420;2023-04-01T20:07:45;7.20;99.90
64939;DHT22;51453;47.738;7.420;2023-04-01T20:10:16;7.20;99.90
64939;DHT22;51453;47.738;7.420;2023-04-01T20:12:47;7.10;99.90
64939;DHT22;51453;47.738;7.420;2023-04-01T20:15:31;7.10;99.90
64939;DHT22;51453;47.738;7.420;2023-04-01T20:18:00;7.10;99.90
64939;DHT22;51453;47.738;7.420;2023-04-01T20:20:28;7.10;99.90
64939;DHT22;51453;47.738;7.420;2023-04-01T20:43:52;7.30;99.90
64939;DHT22;51453;47.738;7.420;2023-04-01T20:51:30;7.60;99.90
64939;DHT22;51453;47.738;7.420;2023-04-01T20:54:38;7.80;99.90
64939;DHT22;51453;47.738;7.420;2023-04-01T20:57:11;8.00;99.90
64939;DHT22;51453;47.738;7.420;2023-04-01T21:03:14;8.20;99.90
64939;DHT22;51453;47.738;7.420;2023-04-01T21:06:03;8.30;99.90
64939;DHT22;51453;47.738;7.420;2023-04-01T21:08:50;8.30;99.90
64939;DHT22;51453;47.738;7.420;2023-04-01T21:20:18;8.20;99.90
64939;DHT22;51453;47.738;7.420;2023-04-01T21:28:44;8.00;99.90
64939;DHT22;51453;47.738;7.420;2023-04-01T21:58:47;7.30;99.90
64939;DHT22;51453;47.738;7.420;2023-04-01T22:01:18;7.20;99.90
64939;DHT22;51453;47.738;7.420;2023-04-01T22:04:29;7.20;99.90
64939;DHT22;51453;47.738;7.420;2023-04-01T22:09:32;7.20;99.90
64939;DHT22;51453;47.738;7.420;2023-04-01T22:14:53;7.10;99.90
64939;DHT22;51453;47.738;7.420;2023-04-01T22:18:00;7.10;99.90
64939;DHT22;51453;47.738;7.420;2023-04-01T22:20:36;7.00;99.90
64939;DHT22;51453;47.738;7.420;2023-04-01T22:23:23;7.10;99.90
64939;DHT22;51453;47.738;7.420;2023-04-01T22:31:00;7.30;99.90
64939;DHT22;51453;47.738;7.420;2023-04-01T22:44:28;7.60;99.90
64939;DHT22;51453;47.738;7.420;2023-04-01T22:50:04;7.60;99.90
64939;DHT22;51453;47.738;7.420;2023-04-01T22:52:45;7.60;99.90
64939;DHT22;51453;47.738;7.420;2023-04-01T22:55:22;7.60;99.90
64939;DHT22;51453;47.738;7.420;2023-04-01T22:58:04;7.50;99.90
64939;DHT22;51453;47.738;7.420;2023-04-01T23:00:45;7.60;99.90
64939;DHT22;51453;47.738;7.420;2023-04-01T23:03:22;7.60;99.90
64939;DHT22;51453;47.738;7.420;2023-04-01T23:06:01;7.60;99.90
64939;DHT22;51453;47.738;7.420;2023-04-01T23:09:00;7.50;99.90
64939;DHT22;51453;47.738;7.420;2023-04-01T23:11:54;7.50;99.90
64939;DHT22;51453;47.738;7.420;2023-04-01T23:22:58;7.50;99.90
64939;DHT22;51453;47.738;7.420;2023-04-01T23:25:46;7.60;99.90
64939;DHT22;51453;47.738;7.420;2023-04-01T23:36:10;7.70;99.90
64939;DHT22;51453;47.738;7.420;2023-04-01T23:38:39;7.70;99.90
64939;DHT22;51453;47.738;7.420;2023-04-01T23:41:08;7.70;99.90
64939;DHT22;51453;47.738;7.420;2023-04-01T23:43:42;7.60;99.90
64939;DHT22;51453;47.738;7.420;2023-04-01T23:46:09;7.60;99.90
64939;DHT22;51453;47.738;7.420;2023-04-01T23:48:39;7.60;99.90
64939;DHT22;51453;47.738;7.420;2023-04-01T23:51:28;7.60;99.90
64939;DHT22;51453;47.738;7.420;2023-04-01T23:54:14;7.60;99.90
64939;DHT22;51453;47.738;7.420;2023-04-01T23:56:46;7.50;99.90
64939;DHT22;51453;47.738;7.420;2023-04-01T23:59:18;7.40;99.90
